sensor_id;sensor_type;location;lat;lon;timestamp;temperature;humidity
60860;DHT22;46694;54.382;9.708;2023-05-10T00:01:43;14.50;87.90
60860;DHT22;46694;54.382;9.708;2023-05-10T00:04:22;14.50;88.20
60860;DHT22;46694;54.382;9.708;2023-05-10T00:07:06;14.40;88.50
60860;DHT22;46694;54.382;9.708;2023-05-10T00:09:45;14.40;88.70
60860;DHT22;46694;54.382;9.708;2023-05-10T00:12:25;14.40;88.70
60860;DHT22;46694;54.382;9.708;2023-05-10T00:15:05;14.50;88.90
60860;DHT22;46694;54.382;9.708;2023-05-10T00:17:45;14.50;89.90
60860;DHT22;46694;54.382;9.708;2023-05-10T00:20:24;14.50;89.10
60860;DHT22;46694;54.382;9.708;2023-05-10T00:23:04;14.50;89.20
60860;DHT22;46694;54.382;9.708;2023-05-10T00:25:44;14.40;89.30
60860;DHT22;46694;54.382;9.708;2023-05-10T00:28:23;14.40;89.50
60860;DHT22;46694;54.382;9.708;2023-05-10T00:31:03;14.40;89.60
60860;DHT22;46694;54.382;9.708;2023-05-10T00:33:42;14.40;90.00
60860;DHT22;46694;54.382;9.708;2023-05-10T00:36:21;14.30;90.00
60860;DHT22;46694;54.382;9.708;2023-05-10T00:39:01;14.30;90.10
60860;DHT22;46694;54.382;9.708;2023-05-10T00:41:42;14.30;90.20
60860;DHT22;46694;54.382;9.708;2023-05-10T00:44:22;14.30;90.30
60860;DHT22;46694;54.382;9.708;2023-05-10T00:47:01;14.30;90.40
60860;DHT22;46694;54.382;9.708;2023-05-10T00:49:41;14.20;90.40
60860;DHT22;46694;54.382;9.708;2023-05-10T00:52:21;14.20;90.60
60860;DHT22;46694;54.382;9.708;2023-05-10T00:55:03;14.10;90.80
60860;DHT22;46694;54.382;9.708;2023-05-10T00:57:44;14.00;91.00
60860;DHT22;46694;54.382;9.708;2023-05-10T01:00:25;13.90;91.20
60860;DHT22;46694;54.382;9.708;2023-05-10T01:03:04;13.80;91.40
60860;DHT22;46694;54.382;9.708;2023-05-10T01:05:43;13.70;91.60
60860;DHT22;46694;54.382;9.708;2023-05-10T01:08:24;13.60;91.90
60860;DHT22;46694;54.382;9.708;2023-05-10T01:11:04;13.60;92.10
60860;DHT22;46694;54.382;9.708;2023-05-10T01:13:50;13.60;92.30
60860;DHT22;46694;54.382;9.708;2023-05-10T01:16:37;13.50;92.50
60860;DHT22;46694;54.382;9.708;2023-05-10T01:19:26;13.50;92.70
60860;DHT22;46694;54.382;9.708;2023-05-10T01:35:48;13.30;93.70
60860;DHT22;46694;54.382;9.708;2023-05-10T01:38:50;13.20;93.90
60860;DHT22;46694;54.382;9.708;2023-05-10T01:41:59;13.20;94.20
60860;DHT22;46694;54.382;9.708;2023-05-10T01:45:07;13.10;94.40
60860;DHT22;46694;54.382;9.708;2023-05-10T01:48:11;13.10;94.60
60860;DHT22;46694;54.382;9.708;2023-05-10T01:50:53;13.10;94.80
60860;DHT22;46694;54.382;9.708;2023-05-10T01:53:35;13.10;94.80
60860;DHT22;46694;54.382;9.708;2023-05-10T01:56:19;13.10;95.00
60860;DHT22;46694;54.382;9.708;2023-05-10T01:59:06;13.10;95.20
60860;DHT22;46694;54.382;9.708;2023-05-10T02:01:50;13.00;95.40
60860;DHT22;46694;54.382;9.708;2023-05-10T02:04:30;13.00;95.60
60860;DHT22;46694;54.382;9.708;2023-05-10T02:07:10;12.90;95.80
60860;DHT22;46694;54.382;9.708;2023-05-10T02:09:51;12.90;96.00
60860;DHT22;46694;54.382;9.708;2023-05-10T02:12:33;12.90;96.10
60860;DHT22;46694;54.382;9.708;2023-05-10T02:15:19;12.90;96.30
60860;DHT22;46694;54.382;9.708;2023-05-10T02:18:02;12.90;96.40
60860;DHT22;46694;54.382;9.708;2023-05-10T02:20:45;12.90;96.60
60860;DHT22;46694;54.382;9.708;2023-05-10T02:23:26;12.80;96.80
60860;DHT22;46694;54.382;9.708;2023-05-10T02:26:06;12.80;97.00
60860;DHT22;46694;54.382;9.708;2023-05-10T02:28:47;12.80;97.20
60860;DHT22;46694;54.382;9.708;2023-05-10T02:31:31;12.70;97.40
60860;DHT22;46694;54.382;9.708;2023-05-10T02:34:11;12.70;97.70
60860;DHT22;46694;54.382;9.708;2023-05-10T02:36:52;12.70;97.90
60860;DHT22;46694;54.382;9.708;2023-05-10T02:39:33;12.70;98.20
60860;DHT22;46694;54.382;9.708;2023-05-10T02:42:16;12.60;98.40
60860;DHT22;46694;54.382;9.708;2023-05-10T02:45:01;12.60;98.60
60860;DHT22;46694;54.382;9.708;2023-05-10T02:47:41;12.60;98.80
60860;DHT22;46694;54.382;9.708;2023-05-10T02:50:22;12.60;99.10
60860;DHT22;46694;54.382;9.708;2023-05-10T02:53:10;12.60;99.50
60860;DHT22;46694;54.382;9.708;2023-05-10T02:55:54;12.60;99.90
60860;DHT22;46694;54.382;9.708;2023-05-10T02:58:36;12.50;99.90
60860;DHT22;46694;54.382;9.708;2023-05-10T03:01:16;12.50;99.90
60860;DHT22;46694;54.382;9.708;2023-05-10T03:03:55;12.40;99.90
60860;DHT22;46694;54.382;9.708;2023-05-10T03:06:35;12.40;99.90
60860;DHT22;46694;54.382;9.708;2023-05-10T03:09:15;12.40;99.90
60860;DHT22;46694;54.382;9.708;2023-05-10T03:12:07;12.40;99.90
60860;DHT22;46694;54.382;9.708;2023-05-10T03:15:47;12.30;99.90
60860;DHT22;46694;54.382;9.708;2023-05-10T03:18:44;12.30;99.90
60860;DHT22;46694;54.382;9.708;2023-05-10T03:21:29;12.20;99.90
60860;DHT22;46694;54.382;9.708;2023-05-10T03:24:10;12.20;99.90
60860;DHT22;46694;54.382;9.708;2023-05-10T03:26:55;12.20;99.90
60860;DHT22;46694;54.382;9.708;2023-05-10T03:29:39;12.20;99.90
60860;DHT22;46694;54.382;9.708;2023-05-10T03:32:19;12.20;99.90
60860;DHT22;46694;54.382;9.708;2023-05-10T03:34:58;12.10;99.90
60860;DHT22;46694;54.382;9.708;2023-05-10T03:37:38;12.10;99.90
60860;DHT22;46694;54.382;9.708;2023-05-10T03:40:18;12.10;99.90
60860;DHT22;46694;54.382;9.708;2023-05-10T03:42:58;12.10;99.90
60860;DHT22;46694;54.382;9.708;2023-05-10T03:45:38;12.10;99.90
60860;DHT22;46694;54.382;9.708;2023-05-10T03:48:18;12.10;99.90
60860;DHT22;46694;54.382;9.708;2023-05-10T03:50:57;12.10;99.90
60860;DHT22;46694;54.382;9.708;2023-05-10T03:53:37;12.10;99.90
60860;DHT22;46694;54.382;9.708;2023-05-10T03:56:16;12.10;99.90
60860;DHT22;46694;54.382;9.708;2023-05-10T03:58:56;12.10;99.90
60860;DHT22;46694;54.382;9.708;2023-05-10T04:01:35;12.10;99.90
60860;DHT22;46694;54.382;9.708;2023-05-10T04:04:15;12.10;99.90
60860;DHT22;46694;54.382;9.708;2023-05-10T04:06:57;12.10;99.90
60860;DHT22;46694;54.382;9.708;2023-05-10T04:09:36;12.10;99.90
60860;DHT22;46694;54.382;9.708;2023-05-10T04:12:16;12.20;99.90
60860;DHT22;46694;54.382;9.708;2023-05-10T04:14:56;12.20;99.90
60860;DHT22;46694;54.382;9.708;2023-05-10T04:17:35;12.20;99.90
60860;DHT22;46694;54.382;9.708;2023-05-10T04:20:14;12.30;99.90
60860;DHT22;46694;54.382;9.708;2023-05-10T04:22:54;12.30;99.90
60860;DHT22;46694;54.382;9.708;2023-05-10T04:25:34;12.40;99.90
60860;DHT22;46694;54.382;9.708;2023-05-10T04:28:14;12.50;99.90
60860;DHT22;46694;54.382;9.708;2023-05-10T04:31:01;12.60;99.90
60860;DHT22;46694;54.382;9.708;2023-05-10T04:33:47;12.60;99.90
60860;DHT22;46694;54.382;9.708;2023-05-10T04:36:27;12.60;99.90
60860;DHT22;46694;54.382;9.708;2023-05-10T04:39:06;12.70;99.90
60860;DHT22;46694;54.382;9.708;2023-05-10T04:41:46;12.70;99.90
60860;DHT22;46694;54.382;9.708;2023-05-10T04:44:26;12.80;99.90
60860;DHT22;46694;54.382;9.708;2023-05-10T04:47:05;12.90;99.90
60860;DHT22;46694;54.382;9.708;2023-05-10T04:49:45;12.90;99.90
60860;DHT22;46694;54.382;9.708;2023-05-10T04:52:24;12.90;99.90
60860;DHT22;46694;54.382;9.708;2023-05-10T04:55:05;12.90;99.90
60860;DHT22;46694;54.382;9.708;2023-05-10T04:57:47;12.90;99.90
60860;DHT22;46694;54.382;9.708;2023-05-10T05:00:26;13.00;99.90
60860;DHT22;46694;54.382;9.708;2023-05-10T05:03:06;13.10;99.90
60860;DHT22;46694;54.382;9.708;2023-05-10T05:05:45;13.10;99.90
60860;DHT22;46694;54.382;9.708;2023-05-10T05:08:25;13.20;99.90
60860;DHT22;46694;54.382;9.708;2023-05-10T05:11:04;13.30;99.90
60860;DHT22;46694;54.382;9.708;2023-05-10T05:13:44;13.50;99.90
60860;DHT22;46694;54.382;9.708;2023-05-10T05:16:24;13.70;99.90
60860;DHT22;46694;54.382;9.708;2023-05-10T05:19:04;13.90;99.90
60860;DHT22;46694;54.382;9.708;2023-05-10T05:21:44;14.00;99.90
60860;DHT22;46694;54.382;9.708;2023-05-10T05:24:24;14.20;99.90
60860;DHT22;46694;54.382;9.708;2023-05-10T05:27:03;14.30;99.90
60860;DHT22;46694;54.382;9.708;2023-05-10T05:29:43;14.40;99.90
60860;DHT22;46694;54.382;9.708;2023-05-10T05:32:23;14.40;99.90
60860;DHT22;46694;54.382;9.708;2023-05-10T05:35:04;14.40;99.90
60860;DHT22;46694;54.382;9.708;2023-05-10T05:37:44;14.60;99.90
60860;DHT22;46694;54.382;9.708;2023-05-10T05:40:23;14.80;99.90
60860;DHT22;46694;54.382;9.708;2023-05-10T05:43:06;15.00;99.90
60860;DHT22;46694;54.382;9.708;2023-05-10T05:45:46;15.10;99.90
60860;DHT22;46694;54.382;9.708;2023-05-10T05:48:25;15.40;99.90
60860;DHT22;46694;54.382;9.708;2023-05-10T05:51:05;15.60;99.90
60860;DHT22;46694;54.382;9.708;2023-05-10T05:53:45;15.90;99.90
60860;DHT22;46694;54.382;9.708;2023-05-10T05:56:24;16.00;99.90
60860;DHT22;46694;54.382;9.708;2023-05-10T05:59:04;16.20;99.90
60860;DHT22;46694;54.382;9.708;2023-05-10T06:01:43;16.30;99.90
60860;DHT22;46694;54.382;9.708;2023-05-10T06:04:23;16.50;99.90
60860;DHT22;46694;54.382;9.708;2023-05-10T06:07:03;16.70;99.90
60860;DHT22;46694;54.382;9.708;2023-05-10T06:09:42;16.90;99.90
60860;DHT22;46694;54.382;9.708;2023-05-10T06:12:22;16.90;99.30
60860;DHT22;46694;54.382;9.708;2023-05-10T06:15:02;17.00;99.40
60860;DHT22;46694;54.382;9.708;2023-05-10T06:17:42;17.20;99.30
60860;DHT22;46694;54.382;9.708;2023-05-10T06:20:23;17.30;98.80
60860;DHT22;46694;54.382;9.708;2023-05-10T06:23:02;17.40;98.20
60860;DHT22;46694;54.382;9.708;2023-05-10T06:25:42;17.40;97.70
60860;DHT22;46694;54.382;9.708;2023-05-10T06:28:21;17.50;97.50
60860;DHT22;46694;54.382;9.708;2023-05-10T06:31:01;17.60;97.50
60860;DHT22;46694;54.382;9.708;2023-05-10T06:33:41;17.80;97.80
60860;DHT22;46694;54.382;9.708;2023-05-10T06:36:20;18.10;97.70
60860;DHT22;46694;54.382;9.708;2023-05-10T06:39:01;18.40;97.00
60860;DHT22;46694;54.382;9.708;2023-05-10T06:41:40;18.60;96.40
60860;DHT22;46694;54.382;9.708;2023-05-10T06:44:20;18.70;95.90
60860;DHT22;46694;54.382;9.708;2023-05-10T06:47:00;18.90;95.30
60860;DHT22;46694;54.382;9.708;2023-05-10T06:49:40;18.90;94.60
60860;DHT22;46694;54.382;9.708;2023-05-10T06:52:20;18.70;94.50
60860;DHT22;46694;54.382;9.708;2023-05-10T06:54:59;18.60;94.40
60860;DHT22;46694;54.382;9.708;2023-05-10T06:57:39;18.50;94.30
60860;DHT22;46694;54.382;9.708;2023-05-10T07:00:19;18.50;94.60
60860;DHT22;46694;54.382;9.708;2023-05-10T07:02:59;18.70;94.30
60860;DHT22;46694;54.382;9.708;2023-05-10T07:05:38;18.60;94.10
60860;DHT22;46694;54.382;9.708;2023-05-10T07:08:21;18.60;94.00
60860;DHT22;46694;54.382;9.708;2023-05-10T07:11:05;18.80;93.80
60860;DHT22;46694;54.382;9.708;2023-05-10T07:13:49;18.80;93.50
60860;DHT22;46694;54.382;9.708;2023-05-10T07:16:28;18.70;93.50
60860;DHT22;46694;54.382;9.708;2023-05-10T07:19:08;18.70;93.20
60860;DHT22;46694;54.382;9.708;2023-05-10T07:21:48;18.90;93.60
60860;DHT22;46694;54.382;9.708;2023-05-10T07:24:27;19.20;93.60
60860;DHT22;46694;54.382;9.708;2023-05-10T07:27:07;19.50;93.20
60860;DHT22;46694;54.382;9.708;2023-05-10T07:29:47;19.60;92.60
60860;DHT22;46694;54.382;9.708;2023-05-10T07:32:26;19.70;92.50
60860;DHT22;46694;54.382;9.708;2023-05-10T07:35:06;19.90;92.10
60860;DHT22;46694;54.382;9.708;2023-05-10T07:37:46;20.00;91.90
60860;DHT22;46694;54.382;9.708;2023-05-10T07:40:26;20.30;91.80
60860;DHT22;46694;54.382;9.708;2023-05-10T07:43:06;20.50;91.30
60860;DHT22;46694;54.382;9.708;2023-05-10T07:45:45;20.60;90.50
60860;DHT22;46694;54.382;9.708;2023-05-10T07:48:26;20.60;90.40
60860;DHT22;46694;54.382;9.708;2023-05-10T07:51:05;20.80;90.10
60860;DHT22;46694;54.382;9.708;2023-05-10T07:53:46;21.00;88.50
60860;DHT22;46694;54.382;9.708;2023-05-10T07:56:30;20.90;87.90
60860;DHT22;46694;54.382;9.708;2023-05-10T07:59:15;21.00;88.50
60860;DHT22;46694;54.382;9.708;2023-05-10T08:01:56;21.20;88.50
60860;DHT22;46694;54.382;9.708;2023-05-10T08:04:35;21.40;88.50
60860;DHT22;46694;54.382;9.708;2023-05-10T08:07:15;21.60;87.30
60860;DHT22;46694;54.382;9.708;2023-05-10T08:09:54;21.60;87.60
60860;DHT22;46694;54.382;9.708;2023-05-10T08:12:34;21.80;87.40
60860;DHT22;46694;54.382;9.708;2023-05-10T08:15:14;21.90;86.00
60860;DHT22;46694;54.382;9.708;2023-05-10T08:17:53;21.90;85.00
60860;DHT22;46694;54.382;9.708;2023-05-10T08:20:33;22.10;84.50
60860;DHT22;46694;54.382;9.708;2023-05-10T08:23:12;22.20;83.60
60860;DHT22;46694;54.382;9.708;2023-05-10T08:25:52;22.20;82.10
60860;DHT22;46694;54.382;9.708;2023-05-10T08:28:32;22.10;81.50
60860;DHT22;46694;54.382;9.708;2023-05-10T08:31:12;22.20;81.40
60860;DHT22;46694;54.382;9.708;2023-05-10T08:33:51;22.30;81.70
60860;DHT22;46694;54.382;9.708;2023-05-10T08:36:31;22.50;81.90
60860;DHT22;46694;54.382;9.708;2023-05-10T08:43:19;22.30;80.60
60860;DHT22;46694;54.382;9.708;2023-05-10T08:46:00;22.30;80.10
60860;DHT22;46694;54.382;9.708;2023-05-10T08:48:42;22.20;81.00
60860;DHT22;46694;54.382;9.708;2023-05-10T08:51:24;22.20;81.80
60860;DHT22;46694;54.382;9.708;2023-05-10T08:54:05;22.40;82.30
60860;DHT22;46694;54.382;9.708;2023-05-10T08:56:45;22.80;82.20
60860;DHT22;46694;54.382;9.708;2023-05-10T08:59:25;23.40;80.80
60860;DHT22;46694;54.382;9.708;2023-05-10T09:02:05;23.40;77.30
60860;DHT22;46694;54.382;9.708;2023-05-10T09:04:44;22.90;76.00
60860;DHT22;46694;54.382;9.708;2023-05-10T09:07:24;22.20;77.00
60860;DHT22;46694;54.382;9.708;2023-05-10T09:10:05;21.70;78.10
60860;DHT22;46694;54.382;9.708;2023-05-10T09:12:45;21.30;79.20
60860;DHT22;46694;54.382;9.708;2023-05-10T09:15:25;21.20;80.10
60860;DHT22;46694;54.382;9.708;2023-05-10T09:18:05;21.00;80.30
60860;DHT22;46694;54.382;9.708;2023-05-10T09:20:45;20.80;80.90
60860;DHT22;46694;54.382;9.708;2023-05-10T09:23:25;20.60;82.20
60860;DHT22;46694;54.382;9.708;2023-05-10T09:26:10;20.50;83.00
60860;DHT22;46694;54.382;9.708;2023-05-10T09:28:54;20.50;83.30
60860;DHT22;46694;54.382;9.708;2023-05-10T09:31:49;20.50;83.40
60860;DHT22;46694;54.382;9.708;2023-05-10T09:34:31;20.40;83.70
60860;DHT22;46694;54.382;9.708;2023-05-10T09:37:11;20.20;84.50
60860;DHT22;46694;54.382;9.708;2023-05-10T09:39:54;20.10;84.90
60860;DHT22;46694;54.382;9.708;2023-05-10T09:42:34;20.00;84.90
60860;DHT22;46694;54.382;9.708;2023-05-10T09:45:14;19.70;85.60
60860;DHT22;46694;54.382;9.708;2023-05-10T09:47:54;19.60;86.70
60860;DHT22;46694;54.382;9.708;2023-05-10T09:50:33;19.60;87.10
60860;DHT22;46694;54.382;9.708;2023-05-10T09:53:14;19.50;87.60
60860;DHT22;46694;54.382;9.708;2023-05-10T09:55:54;19.50;88.10
60860;DHT22;46694;54.382;9.708;2023-05-10T09:58:37;19.50;88.20
60860;DHT22;46694;54.382;9.708;2023-05-10T10:01:19;19.50;88.50
60860;DHT22;46694;54.382;9.708;2023-05-10T10:04:01;19.50;88.70
60860;DHT22;46694;54.382;9.708;2023-05-10T10:06:42;19.30;88.80
60860;DHT22;46694;54.382;9.708;2023-05-10T10:09:22;19.10;89.60
60860;DHT22;46694;54.382;9.708;2023-05-10T10:12:02;19.20;90.00
60860;DHT22;46694;54.382;9.708;2023-05-10T10:14:43;19.30;90.00
60860;DHT22;46694;54.382;9.708;2023-05-10T10:17:27;19.20;90.00
60860;DHT22;46694;54.382;9.708;2023-05-10T10:20:08;19.30;90.40
60860;DHT22;46694;54.382;9.708;2023-05-10T10:22:48;19.30;90.30
60860;DHT22;46694;54.382;9.708;2023-05-10T10:25:27;19.20;90.70
60860;DHT22;46694;54.382;9.708;2023-05-10T10:34:27;19.40;90.60
60860;DHT22;46694;54.382;9.708;2023-05-10T10:37:08;19.50;90.60
60860;DHT22;46694;54.382;9.708;2023-05-10T10:39:50;19.70;90.40
60860;DHT22;46694;54.382;9.708;2023-05-10T10:42:46;19.90;90.10
60860;DHT22;46694;54.382;9.708;2023-05-10T10:45:26;19.90;89.50
60860;DHT22;46694;54.382;9.708;2023-05-10T10:48:22;19.80;89.90
60860;DHT22;46694;54.382;9.708;2023-05-10T10:51:02;19.90;90.30
60860;DHT22;46694;54.382;9.708;2023-05-10T10:53:43;19.80;90.50
60860;DHT22;46694;54.382;9.708;2023-05-10T10:56:22;20.00;90.40
60860;DHT22;46694;54.382;9.708;2023-05-10T10:59:03;19.90;90.30
60860;DHT22;46694;54.382;9.708;2023-05-10T11:01:43;19.90;90.80
60860;DHT22;46694;54.382;9.708;2023-05-10T11:04:24;19.90;91.10
60860;DHT22;46694;54.382;9.708;2023-05-10T11:07:16;20.00;90.90
60860;DHT22;46694;54.382;9.708;2023-05-10T11:10:04;19.90;90.80
60860;DHT22;46694;54.382;9.708;2023-05-10T11:15:48;19.70;91.10
60860;DHT22;46694;54.382;9.708;2023-05-10T11:18:30;19.60;91.20
60860;DHT22;46694;54.382;9.708;2023-05-10T11:21:09;19.50;91.40
60860;DHT22;46694;54.382;9.708;2023-05-10T11:23:52;19.50;91.80
60860;DHT22;46694;54.382;9.708;2023-05-10T11:26:35;19.40;92.50
60860;DHT22;46694;54.382;9.708;2023-05-10T11:29:16;19.40;93.10
60860;DHT22;46694;54.382;9.708;2023-05-10T11:31:59;19.30;93.40
60860;DHT22;46694;54.382;9.708;2023-05-10T11:34:39;19.30;93.90
60860;DHT22;46694;54.382;9.708;2023-05-10T11:37:19;19.30;94.20
60860;DHT22;46694;54.382;9.708;2023-05-10T11:39:59;19.40;94.40
60860;DHT22;46694;54.382;9.708;2023-05-10T11:42:38;19.30;94.60
60860;DHT22;46694;54.382;9.708;2023-05-10T11:45:18;19.20;95.00
60860;DHT22;46694;54.382;9.708;2023-05-10T11:47:59;19.10;95.70
60860;DHT22;46694;54.382;9.708;2023-05-10T11:50:38;18.90;96.40
60860;DHT22;46694;54.382;9.708;2023-05-10T11:53:19;18.70;97.10
60860;DHT22;46694;54.382;9.708;2023-05-10T11:58:44;18.30;99.10
60860;DHT22;46694;54.382;9.708;2023-05-10T12:01:27;18.10;99.90
60860;DHT22;46694;54.382;9.708;2023-05-10T12:04:07;18.00;99.90
60860;DHT22;46694;54.382;9.708;2023-05-10T12:06:47;17.90;99.90
60860;DHT22;46694;54.382;9.708;2023-05-10T12:09:26;17.80;99.90
60860;DHT22;46694;54.382;9.708;2023-05-10T12:12:06;17.70;99.90
60860;DHT22;46694;54.382;9.708;2023-05-10T12:14:50;17.60;99.90
60860;DHT22;46694;54.382;9.708;2023-05-10T12:17:30;17.50;99.90
60860;DHT22;46694;54.382;9.708;2023-05-10T12:20:19;17.40;99.90
60860;DHT22;46694;54.382;9.708;2023-05-10T12:22:59;17.30;99.90
60860;DHT22;46694;54.382;9.708;2023-05-10T12:25:42;17.30;99.90
60860;DHT22;46694;54.382;9.708;2023-05-10T12:28:22;17.10;99.90
60860;DHT22;46694;54.382;9.708;2023-05-10T12:31:02;17.00;99.90
60860;DHT22;46694;54.382;9.708;2023-05-10T12:33:43;16.90;99.90
60860;DHT22;46694;54.382;9.708;2023-05-10T12:36:24;16.80;99.90
60860;DHT22;46694;54.382;9.708;2023-05-10T12:39:04;16.70;99.90
60860;DHT22;46694;54.382;9.708;2023-05-10T12:41:44;16.70;99.90
60860;DHT22;46694;54.382;9.708;2023-05-10T12:44:23;16.70;99.90
60860;DHT22;46694;54.382;9.708;2023-05-10T12:47:03;16.80;99.90
60860;DHT22;46694;54.382;9.708;2023-05-10T12:49:43;16.90;99.90
60860;DHT22;46694;54.382;9.708;2023-05-10T12:52:23;16.90;99.90
60860;DHT22;46694;54.382;9.708;2023-05-10T12:55:03;16.90;99.90
60860;DHT22;46694;54.382;9.708;2023-05-10T12:57:43;16.90;99.90
60860;DHT22;46694;54.382;9.708;2023-05-10T13:00:23;16.90;99.90
60860;DHT22;46694;54.382;9.708;2023-05-10T13:03:03;16.90;99.90
60860;DHT22;46694;54.382;9.708;2023-05-10T13:05:44;17.00;99.90
60860;DHT22;46694;54.382;9.708;2023-05-10T13:08:23;17.00;99.90
60860;DHT22;46694;54.382;9.708;2023-05-10T13:11:03;17.00;99.90
60860;DHT22;46694;54.382;9.708;2023-05-10T13:13:43;17.10;99.90
60860;DHT22;46694;54.382;9.708;2023-05-10T13:16:22;17.00;99.90
60860;DHT22;46694;54.382;9.708;2023-05-10T13:19:02;16.80;99.90
60860;DHT22;46694;54.382;9.708;2023-05-10T13:21:41;16.70;99.90
60860;DHT22;46694;54.382;9.708;2023-05-10T13:24:21;16.70;99.90
60860;DHT22;46694;54.382;9.708;2023-05-10T13:27:01;16.70;99.90
60860;DHT22;46694;54.382;9.708;2023-05-10T13:29:41;16.60;99.90
60860;DHT22;46694;54.382;9.708;2023-05-10T13:32:21;16.60;99.90
60860;DHT22;46694;54.382;9.708;2023-05-10T13:35:01;16.60;99.90
60860;DHT22;46694;54.382;9.708;2023-05-10T13:37:42;16.60;99.90
60860;DHT22;46694;54.382;9.708;2023-05-10T13:40:21;16.50;99.90
60860;DHT22;46694;54.382;9.708;2023-05-10T13:43:01;16.50;99.90
60860;DHT22;46694;54.382;9.708;2023-05-10T13:45:40;16.50;99.90
60860;DHT22;46694;54.382;9.708;2023-05-10T13:48:20;16.60;99.90
60860;DHT22;46694;54.382;9.708;2023-05-10T13:51:00;16.60;99.90
60860;DHT22;46694;54.382;9.708;2023-05-10T13:53:39;16.70;99.90
60860;DHT22;46694;54.382;9.708;2023-05-10T13:56:19;16.60;99.90
60860;DHT22;46694;54.382;9.708;2023-05-10T13:58:58;16.60;99.90
60860;DHT22;46694;54.382;9.708;2023-05-10T14:01:38;16.50;99.90
60860;DHT22;46694;54.382;9.708;2023-05-10T14:04:17;16.50;99.90
60860;DHT22;46694;54.382;9.708;2023-05-10T14:06:57;16.50;99.90
60860;DHT22;46694;54.382;9.708;2023-05-10T14:09:36;16.40;99.90
60860;DHT22;46694;54.382;9.708;2023-05-10T14:12:16;16.50;99.90
60860;DHT22;46694;54.382;9.708;2023-05-10T14:14:56;16.40;99.90
60860;DHT22;46694;54.382;9.708;2023-05-10T14:17:37;16.30;99.90
60860;DHT22;46694;54.382;9.708;2023-05-10T14:20:16;16.20;99.90
60860;DHT22;46694;54.382;9.708;2023-05-10T14:22:56;16.20;99.90
60860;DHT22;46694;54.382;9.708;2023-05-10T14:25:36;16.30;99.90
60860;DHT22;46694;54.382;9.708;2023-05-10T14:28:17;16.30;99.90
60860;DHT22;46694;54.382;9.708;2023-05-10T14:30:57;16.30;99.90
60860;DHT22;46694;54.382;9.708;2023-05-10T14:33:37;16.30;99.90
60860;DHT22;46694;54.382;9.708;2023-05-10T14:36:17;16.30;99.90
60860;DHT22;46694;54.382;9.708;2023-05-10T14:38:56;16.40;99.90
60860;DHT22;46694;54.382;9.708;2023-05-10T14:41:36;16.60;99.90
60860;DHT22;46694;54.382;9.708;2023-05-10T14:44:16;16.70;99.90
60860;DHT22;46694;54.382;9.708;2023-05-10T14:46:55;16.80;99.90
60860;DHT22;46694;54.382;9.708;2023-05-10T14:49:35;17.00;99.90
60860;DHT22;46694;54.382;9.708;2023-05-10T14:52:15;17.20;99.90
60860;DHT22;46694;54.382;9.708;2023-05-10T14:54:54;17.30;99.90
60860;DHT22;46694;54.382;9.708;2023-05-10T14:57:34;17.40;99.90
60860;DHT22;46694;54.382;9.708;2023-05-10T15:00:14;17.40;99.90
60860;DHT22;46694;54.382;9.708;2023-05-10T15:02:54;17.50;99.90
60860;DHT22;46694;54.382;9.708;2023-05-10T15:05:34;17.60;99.90
60860;DHT22;46694;54.382;9.708;2023-05-10T15:08:13;17.60;99.90
60860;DHT22;46694;54.382;9.708;2023-05-10T15:10:53;17.60;99.90
60860;DHT22;46694;54.382;9.708;2023-05-10T15:13:34;17.60;99.90
60860;DHT22;46694;54.382;9.708;2023-05-10T15:16:14;17.70;99.90
60860;DHT22;46694;54.382;9.708;2023-05-10T15:18:53;17.80;99.90
60860;DHT22;46694;54.382;9.708;2023-05-10T15:21:33;17.90;99.90
60860;DHT22;46694;54.382;9.708;2023-05-10T15:24:17;18.10;99.90
60860;DHT22;46694;54.382;9.708;2023-05-10T15:26:57;18.30;99.90
60860;DHT22;46694;54.382;9.708;2023-05-10T15:29:37;18.20;99.90
60860;DHT22;46694;54.382;9.708;2023-05-10T15:32:16;18.10;99.90
60860;DHT22;46694;54.382;9.708;2023-05-10T15:34:56;18.00;99.90
60860;DHT22;46694;54.382;9.708;2023-05-10T15:37:36;18.00;99.90
60860;DHT22;46694;54.382;9.708;2023-05-10T15:40:16;17.90;99.90
60860;DHT22;46694;54.382;9.708;2023-05-10T15:42:55;17.90;99.90
60860;DHT22;46694;54.382;9.708;2023-05-10T15:45:35;17.80;99.90
60860;DHT22;46694;54.382;9.708;2023-05-10T15:48:14;17.80;99.90
60860;DHT22;46694;54.382;9.708;2023-05-10T15:50:55;17.80;99.90
60860;DHT22;46694;54.382;9.708;2023-05-10T15:53:35;17.70;99.90
60860;DHT22;46694;54.382;9.708;2023-05-10T15:56:14;17.60;99.90
60860;DHT22;46694;54.382;9.708;2023-05-10T15:58:54;17.50;99.90
60860;DHT22;46694;54.382;9.708;2023-05-10T16:01:34;17.40;99.90
60860;DHT22;46694;54.382;9.708;2023-05-10T16:04:13;17.30;99.90
60860;DHT22;46694;54.382;9.708;2023-05-10T16:06:53;17.30;99.90
60860;DHT22;46694;54.382;9.708;2023-05-10T16:09:33;17.40;99.90
60860;DHT22;46694;54.382;9.708;2023-05-10T16:12:12;17.50;99.90
60860;DHT22;46694;54.382;9.708;2023-05-10T16:14:54;17.40;99.90
60860;DHT22;46694;54.382;9.708;2023-05-10T16:17:34;17.50;99.90
60860;DHT22;46694;54.382;9.708;2023-05-10T16:20:15;17.50;99.90
60860;DHT22;46694;54.382;9.708;2023-05-10T16:22:55;17.50;99.90
60860;DHT22;46694;54.382;9.708;2023-05-10T16:25:34;17.60;99.90
60860;DHT22;46694;54.382;9.708;2023-05-10T16:28:14;17.60;99.90
60860;DHT22;46694;54.382;9.708;2023-05-10T16:30:53;17.70;99.90
60860;DHT22;46694;54.382;9.708;2023-05-10T16:33:33;17.70;99.90
60860;DHT22;46694;54.382;9.708;2023-05-10T16:36:13;17.60;99.90
60860;DHT22;46694;54.382;9.708;2023-05-10T16:38:52;17.60;99.90
60860;DHT22;46694;54.382;9.708;2023-05-10T16:41:32;17.70;99.90
60860;DHT22;46694;54.382;9.708;2023-05-10T16:44:12;17.70;99.90
60860;DHT22;46694;54.382;9.708;2023-05-10T16:46:52;17.70;99.90
60860;DHT22;46694;54.382;9.708;2023-05-10T16:49:34;17.80;99.90
60860;DHT22;46694;54.382;9.708;2023-05-10T16:52:14;17.80;99.90
60860;DHT22;46694;54.382;9.708;2023-05-10T16:54:54;17.70;99.90
60860;DHT22;46694;54.382;9.708;2023-05-10T16:57:34;17.70;99.90
60860;DHT22;46694;54.382;9.708;2023-05-10T17:00:14;17.70;99.90
60860;DHT22;46694;54.382;9.708;2023-05-10T17:02:54;17.70;99.90
60860;DHT22;46694;54.382;9.708;2023-05-10T17:05:34;17.50;99.90
60860;DHT22;46694;54.382;9.708;2023-05-10T17:08:13;17.50;99.90
60860;DHT22;46694;54.382;9.708;2023-05-10T17:10:53;17.40;99.90
60860;DHT22;46694;54.382;9.708;2023-05-10T17:13:33;17.40;99.90
60860;DHT22;46694;54.382;9.708;2023-05-10T17:16:12;17.30;99.90
60860;DHT22;46694;54.382;9.708;2023-05-10T17:18:52;17.10;99.90
60860;DHT22;46694;54.382;9.708;2023-05-10T17:21:31;17.00;99.90
60860;DHT22;46694;54.382;9.708;2023-05-10T17:24:11;16.80;99.90
60860;DHT22;46694;54.382;9.708;2023-05-10T17:26:51;16.70;99.90